Time;durP1;ratioP1;P1;durP2;ratioP2;P2;SDS_P1;SDS_P2;PMS_P1;PMS_P2;Temp;Humidity;BMP_temperature;BMP_pressure;BME280_temperature;BME280_humidity;BME280_pressure;Samples;Min_cycle;Max_cycle;Signal;HPM_P1;HPM_P2
2022/12/25 00:01:09;;;;;;;1.10;0.40;;;9.40;99.90;;;;;;5075194;28;20522;-59
2022/12/25 00:03:36;;;;;;;0.80;0.50;;;9.40;99.90;;;;;;5074964;28;20723;-58
2022/12/25 00:06:03;;;;;;;1.15;0.60;;;9.40;99.90;;;;;;5073550;28;20501;-58
2022/12/25 00:08:31;;;;;;;0.80;0.50;;;9.40;99.90;;;;;;5074665;28;20455;-59
2022/12/25 00:10:59;;;;;;;1.17;0.60;;;9.40;99.90;;;;;;5076907;28;20911;-58
2022/12/25 00:13:28;;;;;;;1.00;0.50;;;9.40;99.90;;;;;;5077299;28;20412;-58
2022/12/25 00:15:56;;;;;;;0.90;0.40;;;9.30;99.90;;;;;;5075446;28;20536;-59
2022/12/25 00:18:24;;;;;;;1.13;0.40;;;9.40;99.90;;;;;;5076549;28;20502;-58
2022/12/25 00:20:58;;;;;;;0.80;0.40;;;9.30;99.90;;;;;;5076387;28;20427;-57
2022/12/25 00:23:25;;;;;;;0.80;0.50;;;9.30;99.90;;;;;;5074301;28;20424;-58
2022/12/25 00:25:53;;;;;;;1.50;0.50;;;9.40;99.90;;;;;;5075705;28;20843;-58
2022/12/25 00:28:21;;;;;;;1.00;0.50;;;9.40;99.90;;;;;;5075193;28;20542;-58
2022/12/25 00:30:50;;;;;;;2.47;0.50;;;9.50;99.90;;;;;;5075111;28;20462;-58
2022/12/25 00:33:17;;;;;;;0.98;0.40;;;9.50;99.90;;;;;;5065573;28;20494;-58
2022/12/25 00:35:45;;;;;;;0.70;0.50;;;9.40;99.90;;;;;;5075003;28;20478;-58
2022/12/25 00:38:12;;;;;;;0.70;0.40;;;9.40;99.90;;;;;;5074935;28;20904;-57
2022/12/25 00:40:43;;;;;;;1.20;0.50;;;9.40;99.90;;;;;;5072980;28;20466;-58
2022/12/25 00:43:11;;;;;;;2.30;0.50;;;9.50;99.90;;;;;;5075223;28;20436;-58
2022/12/25 00:45:38;;;;;;;0.80;0.50;;;9.50;99.90;;;;;;5074161;28;20423;-57
2022/12/25 00:48:07;;;;;;;1.10;0.50;;;9.50;99.90;;;;;;5073564;28;20494;-58
2022/12/25 00:50:34;;;;;;;0.85;0.50;;;9.50;99.90;;;;;;5074305;28;20868;-58
2022/12/25 00:53:01;;;;;;;1.40;0.57;;;9.40;99.90;;;;;;5074835;28;20451;-59
2022/12/25 00:55:30;;;;;;;0.80;0.50;;;9.50;99.90;;;;;;5073759;28;20807;-58
2022/12/25 00:57:58;;;;;;;0.85;0.50;;;9.50;99.90;;;;;;5073088;28;20494;-58
2022/12/25 01:00:25;;;;;;;1.40;0.50;;;9.50;99.90;;;;;;5072549;28;20518;-58
2022/12/25 01:02:53;;;;;;;1.17;0.50;;;9.50;99.90;;;;;;5073498;28;20454;-58
2022/12/25 01:05:21;;;;;;;1.60;0.50;;;9.50;99.90;;;;;;5072110;28;20815;-58
2022/12/25 01:07:48;;;;;;;1.75;0.45;;;9.50;99.90;;;;;;5073971;28;20450;-58
2022/12/25 01:10:23;;;;;;;1.65;0.50;;;9.40;99.90;;;;;;5074987;28;20518;-58
2022/12/25 01:12:51;;;;;;;1.30;0.50;;;9.50;99.90;;;;;;5075229;28;20412;-56
2022/12/25 01:15:19;;;;;;;1.10;0.50;;;9.50;99.90;;;;;;5074499;28;20463;-60
2022/12/25 01:17:46;;;;;;;0.80;0.50;;;9.50;99.90;;;;;;5074400;28;20803;-58
2022/12/25 01:20:16;;;;;;;0.70;0.50;;;9.50;99.90;;;;;;5074623;28;20779;-58
2022/12/25 01:22:45;;;;;;;0.83;0.50;;;9.50;99.90;;;;;;5074758;28;20509;-58
2022/12/25 01:25:13;;;;;;;1.08;0.50;;;9.60;99.90;;;;;;5074865;28;20518;-57
2022/12/25 01:27:41;;;;;;;0.90;0.40;;;9.60;99.90;;;;;;5074843;28;20510;-58
2022/12/25 01:30:10;;;;;;;0.60;0.40;;;9.60;99.90;;;;;;5074671;28;20457;-57
2022/12/25 01:32:37;;;;;;;0.90;0.50;;;9.70;99.90;;;;;;5075661;28;20791;-58
2022/12/25 01:35:04;;;;;;;0.70;0.50;;;9.70;99.90;;;;;;5073236;28;20470;-58
2022/12/25 01:37:32;;;;;;;0.80;0.40;;;9.70;99.90;;;;;;5073976;28;20514;-58
2022/12/25 01:40:00;;;;;;;0.88;0.40;;;9.70;99.90;;;;;;5072933;28;20451;-58
2022/12/25 01:42:28;;;;;;;1.80;0.50;;;9.70;99.90;;;;;;5073599;28;20518;-58
2022/12/25 01:45:33;;;;;;;0.70;0.47;;;9.70;99.90;;;;;;5073582;28;20515;-58
2022/12/25 01:48:04;;;;;;;0.90;0.47;;;9.60;99.90;;;;;;5074565;28;20416;-58
2022/12/25 01:50:33;;;;;;;1.50;0.50;;;9.70;99.90;;;;;;5075081;28;20921;-58
2022/12/25 01:53:00;;;;;;;0.90;0.50;;;9.70;99.90;;;;;;5074950;28;20502;-58
2022/12/25 01:55:30;;;;;;;0.70;0.50;;;9.60;99.90;;;;;;5074983;28;20801;-57
2022/12/25 01:57:57;;;;;;;0.90;0.50;;;9.60;99.90;;;;;;5074555;28;20514;-57
2022/12/25 02:00:24;;;;;;;1.00;0.60;;;9.60;99.90;;;;;;5074737;28;20798;-58
2022/12/25 02:02:52;;;;;;;1.30;0.50;;;9.60;99.90;;;;;;5074016;28;20500;-58
2022/12/25 02:05:23;;;;;;;0.80;0.50;;;9.60;99.90;;;;;;5073452;28;20471;-58
2022/12/25 02:07:51;;;;;;;1.07;0.40;;;9.60;99.90;;;;;;5073558;28;20794;-57
2022/12/25 02:10:18;;;;;;;1.08;0.60;;;9.60;99.90;;;;;;5065304;28;20459;-58
2022/12/25 02:12:48;;;;;;;1.40;0.60;;;9.60;99.90;;;;;;5074580;28;20415;-58
2022/12/25 02:15:19;;;;;;;1.30;0.60;;;9.50;99.90;;;;;;5073676;28;20423;-58
2022/12/25 02:17:56;;;;;;;0.80;0.50;;;9.50;99.90;;;;;;5072718;28;20518;-58
2022/12/25 02:20:39;;;;;;;1.58;0.50;;;9.50;99.90;;;;;;5073100;28;20462;-58
2022/12/25 02:23:38;;;;;;;0.70;0.50;;;9.50;99.90;;;;;;5072886;28;20467;-56
2022/12/25 02:26:24;;;;;;;1.10;0.50;;;9.40;99.90;;;;;;5060053;28;20493;-57
2022/12/25 02:28:58;;;;;;;1.52;0.60;;;9.30;99.90;;;;;;5074618;28;20518;-57
2022/12/25 02:31:32;;;;;;;1.90;0.60;;;9.30;99.90;;;;;;5073175;28;20528;-58
2022/12/25 02:34:15;;;;;;;1.00;0.50;;;9.30;99.90;;;;;;5070925;28;20422;-59
2022/12/25 02:36:49;;;;;;;1.50;0.50;;;9.30;99.90;;;;;;5069854;28;20583;-56
2022/12/25 02:42:12;;;;;;;1.27;0.50;;;9.30;99.90;;;;;;5070793;28;20446;-57
2022/12/25 03:07:07;;;;;;;0.90;0.60;;;9.30;99.90;;;;;;5077766;28;20472;-59
2022/12/25 03:12:37;;;;;;;1.00;0.50;;;9.30;99.90;;;;;;5077701;28;20391;-59
2022/12/25 03:17:57;;;;;;;1.27;0.60;;;9.40;99.90;;;;;;5077165;28;20395;-60
2022/12/25 03:28:39;;;;;;;0.90;0.70;;;9.40;99.90;;;;;;5076073;28;20889;-59
2022/12/25 03:31:15;;;;;;;1.80;0.60;;;9.30;99.90;;;;;;5077113;28;20455;-59
2022/12/25 04:38:09;;;;;;;1.20;0.60;;;9.00;99.90;;;;;;5075192;28;20456;-59
2022/12/25 04:40:38;;;;;;;1.00;0.60;;;9.00;99.90;;;;;;5076144;28;20950;-58
2022/12/25 04:43:05;;;;;;;1.03;0.60;;;9.00;99.90;;;;;;5076403;28;20463;-59
2022/12/25 04:45:32;;;;;;;1.30;0.60;;;9.00;99.90;;;;;;5076072;28;20482;-58
2022/12/25 04:48:00;;;;;;;1.00;0.60;;;9.00;99.90;;;;;;5076486;28;20490;-59
2022/12/25 04:50:27;;;;;;;0.83;0.60;;;9.10;99.90;;;;;;5076346;28;20502;-59
2022/12/25 04:52:54;;;;;;;1.40;0.50;;;9.10;99.90;;;;;;5076395;28;20453;-59
2022/12/25 04:55:21;;;;;;;1.20;0.55;;;9.10;99.90;;;;;;5076123;28;20459;-59
2022/12/25 04:57:50;;;;;;;0.82;0.60;;;9.10;99.90;;;;;;5075712;28;20415;-62
2022/12/25 05:00:18;;;;;;;1.80;0.70;;;9.10;99.90;;;;;;5074921;28;20474;-59
2022/12/25 05:02:45;;;;;;;1.02;0.70;;;9.10;99.90;;;;;;5074668;28;20432;-59
2022/12/25 05:05:12;;;;;;;1.40;0.70;;;9.10;99.90;;;;;;5075264;28;20526;-59
2022/12/25 05:07:40;;;;;;;1.23;0.80;;;9.10;99.90;;;;;;5074482;28;20494;-59
2022/12/25 05:10:08;;;;;;;1.10;0.90;;;9.10;99.90;;;;;;5074687;28;20511;-59
2022/12/25 05:12:35;;;;;;;2.00;0.70;;;9.00;99.90;;;;;;5074745;28;20419;-58
2022/12/25 05:15:04;;;;;;;1.00;0.70;;;9.10;99.90;;;;;;5075585;28;20447;-58
2022/12/25 05:17:32;;;;;;;1.80;0.80;;;9.10;99.90;;;;;;5074818;28;20510;-58
2022/12/25 05:19:59;;;;;;;1.05;0.60;;;9.10;99.90;;;;;;5073623;28;20452;-59
2022/12/25 05:22:26;;;;;;;0.93;0.68;;;9.10;99.90;;;;;;5073808;28;20514;-59
2022/12/25 05:24:53;;;;;;;1.60;0.70;;;9.10;99.90;;;;;;5073337;28;20415;-59
2022/12/25 05:27:21;;;;;;;1.40;0.60;;;9.10;99.90;;;;;;5074354;28;20426;-59
2022/12/25 05:29:48;;;;;;;1.90;0.70;;;9.20;99.90;;;;;;5075176;28;20553;-59
2022/12/25 05:32:17;;;;;;;1.92;0.60;;;9.20;99.90;;;;;;5075485;28;20444;-59
2022/12/25 05:34:44;;;;;;;1.55;0.70;;;9.20;99.90;;;;;;5074947;28;20544;-58
2022/12/25 05:37:11;;;;;;;1.23;0.70;;;9.20;99.90;;;;;;5075052;28;20866;-59
2022/12/25 05:39:38;;;;;;;1.90;0.70;;;9.20;99.90;;;;;;5075172;28;20489;-59
2022/12/25 05:42:05;;;;;;;0.90;0.60;;;9.20;99.90;;;;;;5075332;28;20514;-59
2022/12/25 05:44:33;;;;;;;1.00;0.70;;;9.20;99.90;;;;;;5074375;28;20463;-59
2022/12/25 05:47:00;;;;;;;1.30;0.85;;;9.20;99.90;;;;;;5074482;28;20478;-59
2022/12/25 05:49:28;;;;;;;1.20;0.70;;;9.20;99.90;;;;;;5075228;28;20623;-59
2022/12/25 05:51:56;;;;;;;1.40;0.80;;;9.10;99.90;;;;;;5074984;28;20510;-59
2022/12/25 05:54:23;;;;;;;1.10;0.70;;;9.10;99.90;;;;;;5075245;28;20833;-59
2022/12/25 05:56:50;;;;;;;1.77;0.80;;;9.20;99.90;;;;;;5075286;28;20438;-57
2022/12/25 05:59:17;;;;;;;2.00;0.80;;;9.30;99.90;;;;;;5074948;28;20796;-59
2022/12/25 06:01:45;;;;;;;1.40;0.80;;;9.20;99.90;;;;;;5074021;28;20510;-58
2022/12/25 06:04:12;;;;;;;1.17;0.73;;;9.30;99.90;;;;;;5074573;28;20522;-59
2022/12/25 06:06:41;;;;;;;1.50;0.80;;;9.30;99.90;;;;;;5074160;28;20459;-59
2022/12/25 06:09:09;;;;;;;1.58;0.90;;;9.30;99.90;;;;;;5074232;28;20511;-59
2022/12/25 06:11:36;;;;;;;1.10;0.80;;;9.30;99.90;;;;;;5074919;28;20518;-59
2022/12/25 06:14:03;;;;;;;1.05;0.80;;;9.20;99.90;;;;;;5074558;28;20494;-59
2022/12/25 06:16:30;;;;;;;1.10;0.80;;;9.30;99.90;;;;;;5074553;28;20765;-59
2022/12/25 06:18:57;;;;;;;1.20;0.70;;;9.30;99.90;;;;;;5074954;28;20490;-59
2022/12/25 06:21:25;;;;;;;1.00;0.70;;;9.30;99.90;;;;;;5074931;28;20909;-59
2022/12/25 06:23:53;;;;;;;1.20;0.68;;;9.30;99.90;;;;;;5074608;28;20531;-59
2022/12/25 06:26:21;;;;;;;0.80;0.60;;;9.40;99.90;;;;;;5076529;28;20465;-59
2022/12/25 06:28:48;;;;;;;1.90;0.60;;;9.40;99.90;;;;;;5081197;28;20541;-59
2022/12/25 06:31:18;;;;;;;1.00;0.60;;;9.40;99.90;;;;;;5081074;28;20534;-59
2022/12/25 06:33:45;;;;;;;0.90;0.60;;;9.40;99.90;;;;;;5080732;28;20510;-59
2022/12/25 06:36:14;;;;;;;1.00;0.63;;;9.40;99.90;;;;;;5080516;28;20509;-59
2022/12/25 06:38:41;;;;;;;0.90;0.60;;;9.40;99.90;;;;;;5080549;28;20502;-59
2022/12/25 06:41:12;;;;;;;0.90;0.60;;;9.40;99.90;;;;;;5081610;28;20531;-58
2022/12/25 06:43:39;;;;;;;0.90;0.60;;;9.50;99.90;;;;;;5080744;28;20517;-59
2022/12/25 06:46:11;;;;;;;1.00;0.50;;;9.50;99.90;;;;;;5081336;28;20518;-59
2022/12/25 06:48:40;;;;;;;0.70;0.50;;;9.50;99.90;;;;;;5081169;28;20419;-59
2022/12/25 06:51:08;;;;;;;1.33;0.50;;;9.50;99.90;;;;;;5080708;28;20423;-59
2022/12/25 06:53:35;;;;;;;0.80;0.50;;;9.50;99.90;;;;;;5080905;28;20561;-57
2022/12/25 06:56:07;;;;;;;0.90;0.50;;;9.50;99.90;;;;;;5080734;28;20537;-57
2022/12/25 06:58:35;;;;;;;1.10;0.50;;;9.50;99.90;;;;;;5081070;28;20458;-59
2022/12/25 07:01:13;;;;;;;1.50;0.60;;;9.60;99.90;;;;;;5081374;28;20510;-59
2022/12/25 07:03:42;;;;;;;0.90;0.50;;;9.60;99.90;;;;;;5080935;28;20742;-59
2022/12/25 07:06:09;;;;;;;1.20;0.90;;;9.60;99.90;;;;;;5080743;28;20530;-58
2022/12/25 07:08:37;;;;;;;1.35;0.50;;;9.60;99.90;;;;;;5080838;28;20450;-59
2022/12/25 07:11:04;;;;;;;0.95;0.50;;;9.60;99.90;;;;;;5080965;28;20427;-59
2022/12/25 07:13:31;;;;;;;0.70;0.50;;;9.60;99.90;;;;;;5080651;28;20514;-59
2022/12/25 07:16:02;;;;;;;0.80;0.50;;;9.60;99.90;;;;;;5080956;28;20427;-59
2022/12/25 07:18:30;;;;;;;0.90;0.90;;;9.60;99.90;;;;;;5081201;28;20450;-59
2022/12/25 07:20:59;;;;;;;1.33;0.50;;;9.60;99.90;;;;;;5081344;28;20827;-59
2022/12/25 07:23:26;;;;;;;0.80;0.50;;;9.60;99.90;;;;;;5080860;28;20431;-59
2022/12/25 07:25:54;;;;;;;0.88;0.40;;;9.60;99.90;;;;;;5080879;28;20522;-59
2022/12/25 07:28:21;;;;;;;0.70;0.50;;;9.60;99.90;;;;;;5080391;28;20788;-59
2022/12/25 07:30:49;;;;;;;1.10;0.50;;;9.60;99.90;;;;;;5080938;28;20797;-59
2022/12/25 07:33:17;;;;;;;1.10;0.50;;;9.60;99.90;;;;;;5072528;28;20480;-58
2022/12/25 07:35:45;;;;;;;0.70;0.40;;;9.60;99.90;;;;;;5080187;28;20470;-58
2022/12/25 07:38:12;;;;;;;0.60;0.40;;;9.60;99.90;;;;;;5077101;28;20945;-58
2022/12/25 07:40:39;;;;;;;0.70;0.50;;;9.50;99.90;;;;;;5076934;28;20530;-59
2022/12/25 07:43:06;;;;;;;0.80;0.50;;;9.50;99.90;;;;;;5074714;28;20914;-58
2022/12/25 07:45:34;;;;;;;1.30;0.40;;;9.50;99.90;;;;;;5074450;28;20455;-58
2022/12/25 07:48:01;;;;;;;0.60;0.40;;;9.50;99.90;;;;;;5074292;28;20463;-59
2022/12/25 07:50:29;;;;;;;1.40;0.40;;;9.50;99.90;;;;;;5073419;28;20783;-59
2022/12/25 07:52:57;;;;;;;0.50;0.30;;;9.50;99.90;;;;;;5073278;28;20783;-58
2022/12/25 07:55:24;;;;;;;0.60;0.30;;;9.60;99.90;;;;;;5073431;28;20791;-59
2022/12/25 07:57:51;;;;;;;0.70;0.40;;;9.60;99.90;;;;;;5074070;28;20510;-59
2022/12/25 08:00:19;;;;;;;0.90;0.40;;;9.60;99.90;;;;;;5075166;28;20514;-59
2022/12/25 08:02:49;;;;;;;0.70;0.40;;;9.60;99.90;;;;;;5076579;28;20517;-59
2022/12/25 08:05:17;;;;;;;0.68;0.40;;;9.60;99.90;;;;;;5075887;28;20522;-59
2022/12/25 08:07:45;;;;;;;0.50;0.30;;;9.70;99.90;;;;;;5075688;28;20513;-59
2022/12/25 08:10:12;;;;;;;0.50;0.40;;;9.70;99.90;;;;;;5075785;28;20431;-59
2022/12/25 08:12:40;;;;;;;0.50;0.30;;;9.80;99.90;;;;;;5076128;28;20802;-59
2022/12/25 08:15:08;;;;;;;0.65;0.30;;;9.90;99.90;;;;;;5076855;28;20486;-58
2022/12/25 08:17:35;;;;;;;0.85;0.40;;;9.90;99.90;;;;;;5076529;28;20877;-59
2022/12/25 08:20:03;;;;;;;0.60;0.40;;;9.90;99.90;;;;;;5076005;28;20829;-59
2022/12/25 08:22:30;;;;;;;0.80;0.40;;;9.90;99.90;;;;;;5076434;28;20415;-58
2022/12/25 08:24:59;;;;;;;0.80;0.40;;;9.90;99.90;;;;;;5075288;28;20524;-57
2022/12/25 08:27:26;;;;;;;0.63;0.40;;;9.90;99.90;;;;;;5074985;28;20502;-58
2022/12/25 08:29:53;;;;;;;0.70;0.50;;;9.90;99.90;;;;;;5074604;28;20834;-59
2022/12/25 08:32:20;;;;;;;0.80;0.50;;;9.90;99.90;;;;;;5074678;28;20459;-59
2022/12/25 08:34:48;;;;;;;0.70;0.50;;;9.90;99.90;;;;;;5075293;28;20418;-59
2022/12/25 08:37:15;;;;;;;0.80;0.50;;;9.90;99.90;;;;;;5075892;28;20420;-59
2022/12/25 08:39:42;;;;;;;0.90;0.50;;;9.90;99.90;;;;;;5075767;28;20782;-58
2022/12/25 08:42:11;;;;;;;0.90;0.50;;;9.90;99.90;;;;;;5075956;28;20531;-58
2022/12/25 08:44:38;;;;;;;1.00;0.60;;;9.90;99.90;;;;;;5075547;28;20474;-58
2022/12/25 08:47:05;;;;;;;0.90;0.60;;;9.80;99.90;;;;;;5075768;28;20459;-58
2022/12/25 08:49:33;;;;;;;1.60;0.70;;;9.80;99.90;;;;;;5073955;28;20415;-58
2022/12/25 08:52:00;;;;;;;0.82;0.60;;;9.80;99.90;;;;;;5075060;28;20522;-59
2022/12/25 08:54:27;;;;;;;0.90;0.60;;;9.80;99.90;;;;;;5073795;28;20890;-57
2022/12/25 08:56:54;;;;;;;0.90;0.50;;;9.80;99.90;;;;;;5074164;28;20805;-58
2022/12/25 08:59:23;;;;;;;0.95;0.60;;;9.80;99.90;;;;;;5073914;28;20506;-58
2022/12/25 09:01:50;;;;;;;0.90;0.60;;;9.80;99.90;;;;;;5073447;28;20526;-58
2022/12/25 09:04:17;;;;;;;0.70;0.50;;;9.80;99.90;;;;;;5071724;28;20929;-58
2022/12/25 09:06:44;;;;;;;0.80;0.50;;;9.80;99.90;;;;;;5072997;28;20543;-58
2022/12/25 09:09:12;;;;;;;1.37;0.70;;;9.80;99.90;;;;;;5073635;28;20540;-59
2022/12/25 09:11:39;;;;;;;0.90;0.50;;;9.80;99.90;;;;;;5072715;28;20438;-58
2022/12/25 09:14:06;;;;;;;1.02;0.50;;;9.80;99.90;;;;;;5073252;28;20792;-58
2022/12/25 09:16:35;;;;;;;0.80;0.57;;;9.80;99.90;;;;;;5075338;28;20518;-58
2022/12/25 09:19:02;;;;;;;0.70;0.50;;;9.80;99.90;;;;;;5074872;28;20510;-59
2022/12/25 09:21:30;;;;;;;0.90;0.60;;;9.90;99.90;;;;;;5074742;28;20625;-58
2022/12/25 09:23:57;;;;;;;1.10;0.60;;;10.00;99.90;;;;;;5073884;28;20473;-59
2022/12/25 09:26:26;;;;;;;0.80;0.50;;;10.10;99.90;;;;;;5075467;28;20427;-59
2022/12/25 09:28:53;;;;;;;2.50;0.60;;;10.20;99.90;;;;;;5074692;28;20931;-59
2022/12/25 09:31:21;;;;;;;0.80;0.60;;;10.30;99.90;;;;;;5074583;28;20427;-58
2022/12/25 09:33:50;;;;;;;0.80;0.60;;;10.40;99.90;;;;;;5075204;28;20456;-59
2022/12/25 09:36:20;;;;;;;1.00;0.60;;;10.40;99.90;;;;;;5074722;28;20439;-59
2022/12/25 09:38:47;;;;;;;1.80;0.60;;;10.50;99.90;;;;;;5075247;28;20415;-59
2022/12/25 09:41:21;;;;;;;0.82;0.50;;;10.50;99.90;;;;;;5074608;28;20501;-58
2022/12/25 09:43:51;;;;;;;0.77;0.60;;;10.50;99.90;;;;;;5074726;28;20847;-59
2022/12/25 09:46:23;;;;;;;0.90;0.60;;;10.60;99.90;;;;;;5074150;28;20802;-58
2022/12/25 09:49:01;;;;;;;0.70;0.52;;;10.60;99.90;;;;;;5073543;28;20510;-59
2022/12/25 09:51:31;;;;;;;1.00;0.50;;;10.60;99.90;;;;;;5071695;28;20777;-58
2022/12/25 09:54:04;;;;;;;1.08;0.60;;;10.70;99.90;;;;;;5072282;28;20458;-58
2022/12/25 09:56:33;;;;;;;0.90;0.60;;;10.70;99.90;;;;;;5072249;28;20530;-58
2022/12/25 09:59:00;;;;;;;0.80;0.60;;;10.70;99.90;;;;;;5072599;28;20407;-58
2022/12/25 10:01:34;;;;;;;0.90;0.60;;;10.80;99.90;;;;;;5070495;28;20518;-58
2022/12/25 10:04:30;;;;;;;1.00;0.70;;;10.80;99.90;;;;;;5073773;28;20518;-58
2022/12/25 10:07:10;;;;;;;0.83;0.60;;;10.90;99.90;;;;;;5073282;28;20843;-58
2022/12/25 10:10:03;;;;;;;0.80;0.50;;;10.90;99.90;;;;;;5074876;28;20419;-58
2022/12/25 10:12:40;;;;;;;0.90;0.60;;;11.10;99.90;;;;;;5069852;28;20854;-59
2022/12/25 10:15:21;;;;;;;1.10;0.50;;;11.40;99.90;;;;;;5073466;28;20417;-58
2022/12/25 10:18:11;;;;;;;1.10;0.50;;;11.40;99.90;;;;;;5074527;28;20455;-59
2022/12/25 10:20:48;;;;;;;0.70;0.50;;;11.50;99.90;;;;;;5055030;28;20478;-59
2022/12/25 10:23:20;;;;;;;0.80;0.50;;;11.50;99.90;;;;;;5072001;28;20743;-59
2022/12/25 10:25:48;;;;;;;1.17;0.50;;;11.70;99.90;;;;;;5071918;28;20522;-59
2022/12/25 10:28:23;;;;;;;1.52;0.70;;;12.00;99.90;;;;;;5072418;28;20839;-59
2022/12/25 10:30:52;;;;;;;1.00;0.60;;;12.50;99.90;;;;;;5072400;28;20517;-59
2022/12/25 10:33:20;;;;;;;1.00;0.60;;;12.50;99.90;;;;;;5072223;28;20735;-59
2022/12/25 10:35:49;;;;;;;1.00;0.60;;;12.50;99.90;;;;;;5072630;28;20838;-58
2022/12/25 10:38:19;;;;;;;0.80;0.60;;;12.30;99.90;;;;;;5073414;28;20451;-59
2022/12/25 10:40:56;;;;;;;0.90;0.60;;;12.30;99.90;;;;;;5073037;28;20531;-57
2022/12/25 10:43:30;;;;;;;1.00;0.60;;;12.10;99.90;;;;;;5073944;28;20771;-59
2022/12/25 10:45:58;;;;;;;1.27;0.60;;;12.20;99.90;;;;;;5073677;28;20431;-59
2022/12/25 10:48:27;;;;;;;1.40;0.57;;;12.20;99.90;;;;;;5074350;28;20498;-59
2022/12/25 10:50:58;;;;;;;1.87;0.60;;;12.30;99.90;;;;;;5073699;28;20459;-59
2022/12/25 10:53:37;;;;;;;0.80;0.50;;;12.40;99.90;;;;;;5072539;28;20762;-59
2022/12/25 10:56:06;;;;;;;0.70;0.40;;;12.50;99.90;;;;;;5072231;28;20594;-58
2022/12/25 10:58:34;;;;;;;0.77;0.50;;;12.60;99.90;;;;;;5074351;28;20522;-58
2022/12/25 11:01:04;;;;;;;1.00;0.40;;;12.60;99.90;;;;;;5074367;28;20427;-58
2022/12/25 11:03:33;;;;;;;0.77;0.50;;;12.60;99.90;;;;;;5074034;28;20407;-59
2022/12/25 11:06:02;;;;;;;1.10;0.40;;;12.60;99.90;;;;;;5071535;28;20428;-59
2022/12/25 11:08:33;;;;;;;1.02;0.40;;;12.70;99.90;;;;;;5072800;28;20727;-59
2022/12/25 11:11:04;;;;;;;1.20;0.40;;;12.70;99.90;;;;;;5073304;28;20742;-59
2022/12/25 11:13:36;;;;;;;0.50;0.40;;;12.70;99.90;;;;;;5075964;28;20411;-59
2022/12/25 11:16:09;;;;;;;1.30;0.40;;;12.70;99.90;;;;;;5076195;28;20423;-58
2022/12/25 11:18:45;;;;;;;0.60;0.40;;;12.80;99.90;;;;;;5076188;28;20557;-59
2022/12/25 11:21:19;;;;;;;0.70;0.40;;;12.70;99.90;;;;;;5076720;28;20918;-59
2022/12/25 11:23:49;;;;;;;0.70;0.40;;;12.80;99.90;;;;;;5076301;28;20505;-59
2022/12/25 11:26:18;;;;;;;0.60;0.30;;;12.80;99.90;;;;;;5068491;28;20522;-59
2022/12/25 11:28:48;;;;;;;0.70;0.40;;;12.90;99.90;;;;;;5076538;28;20491;-59
2022/12/25 11:31:18;;;;;;;0.80;0.37;;;12.90;99.90;;;;;;5076642;28;20529;-57
2022/12/25 11:33:51;;;;;;;0.70;0.40;;;13.00;99.90;;;;;;5075908;28;20420;-59
2022/12/25 11:36:27;;;;;;;0.68;0.40;;;13.00;99.90;;;;;;5077326;28;20811;-59
2022/12/25 11:38:54;;;;;;;0.80;0.40;;;13.10;99.90;;;;;;5076553;28;20452;-60
2022/12/25 11:41:33;;;;;;;0.85;0.40;;;13.10;99.90;;;;;;5076016;28;20519;-57
2022/12/25 11:44:03;;;;;;;0.90;0.40;;;13.10;99.90;;;;;;5073007;28;21062;-58
2022/12/25 11:46:38;;;;;;;0.70;0.40;;;13.20;99.90;;;;;;5072543;28;20518;-58
2022/12/25 11:49:07;;;;;;;0.50;0.40;;;13.30;99.90;;;;;;5071443;28;20971;-58
2022/12/25 11:51:40;;;;;;;0.70;0.40;;;13.40;99.90;;;;;;5070943;28;20427;-58
2022/12/25 11:54:18;;;;;;;0.70;0.40;;;13.60;99.90;;;;;;5069247;28;20482;-59
2022/12/25 11:56:45;;;;;;;0.70;0.40;;;13.70;99.90;;;;;;5071338;28;20423;-57
2022/12/25 11:59:20;;;;;;;0.70;0.40;;;13.70;99.90;;;;;;5072910;28;20918;-58
2022/12/25 12:01:52;;;;;;;1.00;0.40;;;13.70;99.90;;;;;;5074135;28;20419;-58
2022/12/25 12:04:22;;;;;;;0.70;0.40;;;13.80;99.90;;;;;;5072866;28;20636;-57
2022/12/25 12:06:56;;;;;;;0.70;0.40;;;13.90;99.90;;;;;;5072293;28;20534;-57
2022/12/25 12:09:33;;;;;;;0.70;0.40;;;14.00;99.90;;;;;;5071066;28;20477;-58
2022/12/25 12:12:07;;;;;;;0.60;0.40;;;14.00;99.90;;;;;;5070876;28;20514;-58
2022/12/25 12:14:56;;;;;;;0.80;0.40;;;14.00;99.90;;;;;;5070522;28;20404;-57
2022/12/25 12:17:23;;;;;;;0.70;0.40;;;14.10;99.90;;;;;;5072270;28;20506;-58
2022/12/25 12:19:51;;;;;;;1.20;0.40;;;14.10;99.90;;;;;;5073477;28;20746;-57
2022/12/25 12:22:23;;;;;;;0.80;0.50;;;14.20;99.90;;;;;;5075156;28;20423;-57
2022/12/25 12:24:55;;;;;;;0.60;0.40;;;14.20;99.90;;;;;;5075347;28;20438;-57
2022/12/25 12:27:33;;;;;;;0.70;0.43;;;14.20;99.90;;;;;;5075479;28;20426;-60
2022/12/25 12:30:01;;;;;;;0.60;0.40;;;14.20;99.90;;;;;;5073826;28;20510;-57
2022/12/25 12:32:37;;;;;;;0.60;0.38;;;14.30;99.90;;;;;;5074259;28;20550;-58
2022/12/25 12:35:15;;;;;;;0.63;0.40;;;14.30;99.90;;;;;;5074231;28;20494;-58
2022/12/25 12:37:46;;;;;;;0.60;0.40;;;14.30;99.90;;;;;;5076245;28;20586;-58
2022/12/25 12:40:39;;;;;;;0.67;0.40;;;14.10;99.90;;;;;;5066125;28;20507;-58
2022/12/25 12:43:22;;;;;;;0.60;0.40;;;14.00;99.90;;;;;;5054509;28;20419;-58
2022/12/25 12:45:55;;;;;;;0.60;0.40;;;14.10;99.90;;;;;;5073797;28;20534;-59
2022/12/25 12:48:25;;;;;;;0.70;0.40;;;14.10;99.90;;;;;;5074169;28;20514;-59
2022/12/25 12:51:03;;;;;;;1.38;0.40;;;14.20;99.90;;;;;;5074062;28;20526;-59
2022/12/25 12:53:32;;;;;;;1.00;0.40;;;14.30;99.90;;;;;;5074070;28;20498;-58
2022/12/25 12:56:14;;;;;;;0.60;0.40;;;14.40;99.90;;;;;;5075318;28;20419;-59
2022/12/25 12:58:47;;;;;;;0.70;0.38;;;14.50;99.90;;;;;;5075080;28;20419;-58
2022/12/25 13:01:40;;;;;;;0.50;0.30;;;14.60;99.90;;;;;;5074824;28;20435;-58
2022/12/25 13:04:22;;;;;;;0.75;0.40;;;14.60;99.90;;;;;;5070412;28;21076;-59
2022/12/25 13:06:56;;;;;;;0.70;0.40;;;14.60;99.90;;;;;;5073867;28;20440;-59
2022/12/25 13:09:37;;;;;;;0.70;0.40;;;14.60;99.90;;;;;;5074275;28;20462;-59
2022/12/25 13:12:06;;;;;;;0.63;0.40;;;14.60;99.90;;;;;;5072351;28;20506;-58
2022/12/25 13:14:34;;;;;;;0.70;0.40;;;14.60;99.90;;;;;;5074092;28;20427;-58
2022/12/25 13:17:01;;;;;;;0.65;0.40;;;14.60;99.90;;;;;;5076017;28;20518;-58
2022/12/25 13:19:29;;;;;;;0.50;0.40;;;14.50;99.90;;;;;;5073955;28;20510;-58
2022/12/25 13:21:59;;;;;;;1.20;0.40;;;14.50;99.90;;;;;;5074107;28;20455;-58
2022/12/25 13:24:29;;;;;;;0.90;0.40;;;14.50;99.90;;;;;;5074742;28;20442;-58
2022/12/25 13:26:56;;;;;;;1.00;0.50;;;14.40;99.90;;;;;;5072846;28;20485;-58
2022/12/25 13:29:31;;;;;;;1.00;0.50;;;14.30;99.90;;;;;;5071551;28;20506;-59
2022/12/25 13:31:59;;;;;;;0.80;0.50;;;14.20;99.90;;;;;;5073191;28;20817;-58
2022/12/25 13:34:31;;;;;;;0.68;0.40;;;14.20;99.90;;;;;;5073302;28;20458;-58
2022/12/25 13:36:59;;;;;;;1.10;0.40;;;14.20;99.90;;;;;;5073047;28;20829;-58
2022/12/25 13:39:29;;;;;;;0.50;0.40;;;14.10;99.90;;;;;;5073655;28;20510;-58
2022/12/25 13:42:04;;;;;;;0.70;0.40;;;14.10;99.90;;;;;;5075380;28;20510;-58
2022/12/25 13:44:40;;;;;;;0.60;0.30;;;14.10;99.90;;;;;;5073958;28;20785;-58
2022/12/25 13:47:21;;;;;;;0.77;0.40;;;14.10;99.90;;;;;;5055370;28;20727;-57
2022/12/25 13:49:49;;;;;;;0.70;0.40;;;14.00;99.90;;;;;;5062830;28;20942;-58
2022/12/25 13:52:19;;;;;;;0.60;0.40;;;14.00;99.90;;;;;;5073613;28;20429;-59
2022/12/25 13:54:59;;;;;;;0.60;0.40;;;14.00;99.90;;;;;;5071716;28;20519;-58
2022/12/25 13:57:33;;;;;;;0.60;0.40;;;14.00;99.90;;;;;;5073181;28;20843;-58
2022/12/25 14:00:02;;;;;;;0.60;0.40;;;14.00;99.90;;;;;;5073393;28;20434;-58
2022/12/25 14:02:31;;;;;;;0.70;0.40;;;13.90;99.90;;;;;;5072860;28;20423;-59
2022/12/25 14:04:59;;;;;;;1.30;0.50;;;13.90;99.90;;;;;;5073681;28;20439;-59
2022/12/25 14:07:27;;;;;;;1.00;0.50;;;13.80;99.90;;;;;;5073386;28;20514;-59
2022/12/25 14:09:59;;;;;;;1.20;0.50;;;13.80;99.90;;;;;;5073245;28;20549;-58
2022/12/25 14:12:29;;;;;;;1.23;0.50;;;13.70;99.90;;;;;;5071717;28;20478;-58
2022/12/25 14:14:58;;;;;;;0.95;0.50;;;13.70;99.90;;;;;;5070491;28;20914;-59
2022/12/25 14:17:26;;;;;;;0.80;0.50;;;13.70;99.90;;;;;;5073588;28;20463;-58
2022/12/25 14:19:58;;;;;;;1.13;0.60;;;13.60;99.90;;;;;;5072212;28;20423;-59
2022/12/25 14:22:27;;;;;;;2.00;0.80;;;13.60;99.90;;;;;;5073780;28;20411;-59
2022/12/25 14:24:56;;;;;;;1.25;0.70;;;13.50;99.90;;;;;;5072723;28;20477;-59
2022/12/25 14:27:26;;;;;;;0.98;0.65;;;13.40;99.90;;;;;;5072552;28;20502;-58
2022/12/25 14:29:56;;;;;;;1.20;0.70;;;13.30;99.90;;;;;;5073404;28;20474;-59
2022/12/25 14:32:26;;;;;;;1.30;0.77;;;13.30;99.90;;;;;;5073735;28;20510;-59
2022/12/25 14:34:57;;;;;;;1.42;0.80;;;13.10;99.90;;;;;;5069652;28;20423;-61
2022/12/25 14:37:28;;;;;;;1.20;0.73;;;13.00;99.90;;;;;;5074327;28;20451;-59
2022/12/25 14:39:59;;;;;;;1.50;0.80;;;12.90;99.90;;;;;;5074386;28;20419;-59
2022/12/25 14:42:28;;;;;;;1.20;0.70;;;12.80;99.90;;;;;;5074106;28;20427;-59
2022/12/25 14:45:02;;;;;;;1.10;0.70;;;12.70;99.90;;;;;;5073261;28;20495;-59
2022/12/25 14:47:30;;;;;;;1.08;0.70;;;12.60;99.90;;;;;;5074173;28;20427;-59
2022/12/25 14:49:58;;;;;;;1.13;0.73;;;12.60;99.90;;;;;;5076620;28;20454;-59
2022/12/25 14:52:29;;;;;;;2.47;0.70;;;12.50;99.90;;;;;;5076847;28;20428;-59